createdAt,value
2022-08-25T00:00:17.231Z,49.25
2022-08-25T00:02:56.014Z,49.47
2022-08-25T00:05:18.331Z,49.70
2022-08-25T00:07:47.822Z,49.78
2022-08-25T00:10:17.942Z,50.04
2022-08-25T00:12:47.413Z,50.16
2022-08-25T00:15:16.933Z,50.31
2022-08-25T00:17:46.305Z,50.37
2022-08-25T00:20:15.065Z,50.42
2022-08-25T00:22:45.290Z,50.69
2022-08-25T00:25:16.603Z,50.76
2022-08-25T00:27:48.114Z,50.98
2022-08-25T00:30:17.235Z,51.01
2022-08-25T00:32:50.475Z,51.25
2022-08-25T00:35:20.033Z,51.41
2022-08-25T00:37:49.856Z,51.63
2022-08-25T00:40:18.808Z,51.77
2022-08-25T00:42:48.428Z,51.77
2022-08-25T00:45:18.033Z,51.81
2022-08-25T00:47:47.974Z,52.02
2022-08-25T00:50:17.597Z,52.21
2022-08-25T00:52:52.418Z,52.44
2022-08-25T00:55:32.859Z,52.51
2022-08-25T00:58:11.801Z,52.47
2022-08-25T01:00:44.504Z,52.44
2022-08-25T01:03:14.208Z,52.75
2022-08-25T01:05:46.459Z,52.90
2022-08-25T01:08:16.550Z,52.79
2022-08-25T01:10:46.202Z,52.62
2022-08-25T01:13:23.661Z,52.63
2022-08-25T01:15:54.990Z,52.68
2022-08-25T01:18:24.663Z,52.75
2022-08-25T01:20:57.393Z,52.87
2022-08-25T01:23:27.231Z,52.65
2022-08-25T01:26:11.388Z,52.64
2022-08-25T01:28:43.182Z,52.73
2022-08-25T01:31:23.989Z,52.78
2022-08-25T01:33:44.907Z,52.81
2022-08-25T01:36:18.033Z,52.85
2022-08-25T01:38:48.096Z,52.93
2022-08-25T01:41:27.983Z,53.01
2022-08-25T01:43:58.046Z,53.07
2022-08-25T01:46:28.808Z,53.25
2022-08-25T01:48:58.651Z,53.44
2022-08-25T01:51:30.169Z,53.54
2022-08-25T01:54:00.133Z,53.69
2022-08-25T01:56:29.627Z,53.77
2022-08-25T01:58:58.759Z,53.83
2022-08-25T02:01:27.695Z,53.88
2022-08-25T02:03:57.137Z,53.93
2022-08-25T02:06:32.065Z,53.97
2022-08-25T02:09:09.513Z,54.13
2022-08-25T02:11:41.836Z,54.37
2022-08-25T02:14:11.972Z,54.47
2022-08-25T02:16:42.307Z,54.55
2022-08-25T02:19:13.396Z,54.70
2022-08-25T02:21:43.387Z,54.80
2022-08-25T02:24:13.840Z,54.84
2022-08-25T02:26:43.183Z,54.87
2022-08-25T02:29:12.706Z,54.93
2022-08-25T02:31:51.247Z,54.95
2022-08-25T02:34:23.385Z,55.02
2022-08-25T02:36:54.001Z,55.14
2022-08-25T02:39:23.833Z,55.21
2022-08-25T02:41:53.727Z,55.30
2022-08-25T02:44:24.361Z,55.49
2022-08-25T02:46:54.335Z,55.34
2022-08-25T02:49:24.299Z,55.55
2022-08-25T02:51:54.445Z,55.58
2022-08-25T02:54:24.062Z,55.43
2022-08-25T02:56:53.626Z,55.32
2022-08-25T02:59:22.738Z,55.33
2022-08-25T03:01:52.029Z,55.28
2022-08-25T03:04:21.290Z,55.26
2022-08-25T03:06:50.597Z,55.30
2022-08-25T03:09:21.472Z,55.38
2022-08-25T03:11:51.754Z,55.38
2022-08-25T03:14:22.222Z,55.39
2022-08-25T03:16:54.759Z,55.52
2022-08-25T03:19:25.359Z,55.63
2022-08-25T03:21:56.658Z,55.79
2022-08-25T03:24:26.123Z,55.93
2022-08-25T04:00:20.463Z,56.76
2022-08-25T04:02:51.189Z,56.52
2022-08-25T04:05:21.673Z,56.46
2022-08-25T04:07:52.731Z,56.52
2022-08-25T04:10:25.197Z,56.58
2022-08-25T04:12:56.272Z,56.60
2022-08-25T04:15:28.918Z,56.63
2022-08-25T04:17:58.918Z,56.78
2022-08-25T04:20:28.785Z,56.79
2022-08-25T04:22:59.804Z,56.62
2022-08-25T04:25:30.089Z,57.12
2022-08-25T04:27:59.687Z,56.80
2022-08-25T04:30:29.124Z,56.45
2022-08-25T04:32:58.657Z,56.50
2022-08-25T04:35:29.164Z,56.63
2022-08-25T04:37:59.327Z,56.42
2022-08-25T04:40:30.095Z,55.64
2022-08-25T04:43:00.258Z,55.83
2022-08-25T04:45:30.748Z,55.53
2022-08-25T04:48:01.080Z,56.04
2022-08-25T04:50:31.321Z,54.87
2022-08-25T04:53:04.199Z,54.20
2022-08-25T04:55:34.656Z,53.88
2022-08-25T04:58:05.596Z,53.31
2022-08-25T05:00:37.900Z,53.11
2022-08-25T05:03:09.106Z,52.88
2022-08-25T05:05:40.198Z,52.62
2022-08-25T05:08:11.960Z,52.22
2022-08-25T05:10:43.036Z,52.34
2022-08-25T05:13:13.506Z,51.95
2022-08-25T05:15:52.968Z,51.32
2022-08-25T05:18:24.232Z,50.92
2022-08-25T05:20:54.977Z,50.65
2022-08-25T05:23:26.239Z,50.43
2022-08-25T05:25:56.397Z,50.29
2022-08-25T05:28:26.991Z,49.62
2022-08-25T05:30:59.878Z,49.50
2022-08-25T05:33:30.901Z,49.51
2022-08-25T05:36:02.594Z,49.58
2022-08-25T05:38:34.550Z,49.51
2022-08-25T05:41:06.574Z,49.32
2022-08-25T05:43:37.493Z,48.69
2022-08-25T05:46:07.913Z,48.52
2022-08-25T05:48:37.968Z,48.32
2022-08-25T05:51:10.079Z,48.48
2022-08-25T05:53:42.936Z,48.25
2022-08-25T05:56:14.104Z,48.12
2022-08-25T05:58:44.052Z,47.93
2022-08-25T06:01:45.079Z,48.18
2022-08-25T06:04:20.493Z,48.10
2022-08-25T06:06:51.628Z,47.93
2022-08-25T06:09:24.293Z,48.05
2022-08-25T06:11:55.260Z,47.88
2022-08-25T06:14:27.368Z,47.85
2022-08-25T06:16:58.645Z,47.75
2022-08-25T06:19:29.223Z,47.57
2022-08-25T06:21:59.447Z,47.45
2022-08-25T06:24:30.707Z,47.44
2022-08-25T06:27:02.398Z,47.26
2022-08-25T06:29:32.637Z,46.98
2022-08-25T06:32:02.668Z,46.63
2022-08-25T06:34:32.612Z,46.39
2022-08-25T06:37:02.024Z,46.24
2022-08-25T06:39:34.149Z,46.17
2022-08-25T06:42:03.959Z,46.04
2022-08-25T06:44:33.855Z,45.46
2022-08-25T06:47:04.195Z,45.62
2022-08-25T06:49:36.486Z,45.66
2022-08-25T06:52:08.234Z,45.35
2022-08-25T06:55:04.098Z,45.30
2022-08-25T06:57:35.375Z,45.35
2022-08-25T07:00:09.642Z,44.73
2022-08-25T07:02:42.493Z,44.59
2022-08-25T07:05:26.725Z,43.94
2022-08-25T07:07:47.498Z,43.67
2022-08-25T07:10:19.652Z,43.07
2022-08-25T07:12:51.775Z,42.03
2022-08-25T07:15:22.057Z,40.94
2022-08-25T07:17:54.431Z,39.87
2022-08-25T07:22:55.592Z,38.02
2022-08-25T07:25:24.960Z,36.29
2022-08-25T07:27:58.677Z,35.64
2022-08-25T07:30:28.297Z,35.36
2022-08-25T07:32:59.545Z,34.43
2022-08-25T07:35:37.390Z,33.59
2022-08-25T07:38:04.951Z,33.17
2022-08-25T07:40:37.152Z,33.74
2022-08-25T07:43:08.852Z,34.02
2022-08-25T07:45:43.155Z,33.78
2022-08-25T07:48:12.366Z,33.45
2022-08-25T07:50:47.002Z,32.85
2022-08-25T07:53:17.436Z,32.63
2022-08-25T07:55:47.807Z,32.06
2022-08-25T07:58:18.002Z,31.89
2022-08-25T08:00:50.753Z,32.08
2022-08-25T08:03:44.177Z,31.63
2022-08-25T08:05:56.514Z,31.73
2022-08-25T08:08:25.844Z,31.92
2022-08-25T08:11:05.167Z,31.78
2022-08-25T08:13:29.590Z,32.21
2022-08-25T08:16:00.470Z,31.44
2022-08-25T08:18:30.371Z,31.27
2022-08-25T08:21:00.484Z,31.10
2022-08-25T08:23:30.531Z,30.27
2022-08-25T08:26:02.710Z,30.19
2022-08-25T08:28:34.630Z,30.42
2022-08-25T08:31:03.980Z,30.57
2022-08-25T08:33:34.424Z,29.95
2022-08-25T08:36:09.304Z,29.77
2022-08-25T08:38:41.557Z,29.21
2022-08-25T08:42:11.695Z,28.51
2022-08-25T08:44:47.649Z,28.18
2022-08-25T08:48:01.600Z,27.67
2022-08-25T08:50:38.994Z,26.91
2022-08-25T08:53:18.268Z,26.81
2022-08-25T08:55:58.387Z,26.29
2022-08-25T08:59:01.500Z,25.29
2022-08-25T09:01:34.673Z,24.89
2022-08-25T09:04:11.861Z,25.42
2022-08-25T09:06:47.801Z,26.15
2022-08-25T09:09:23.282Z,26.21
2022-08-25T09:12:18.185Z,26.40
2022-08-25T09:15:12.697Z,26.18
2022-08-25T09:18:12.451Z,25.54
2022-08-25T09:20:50.202Z,25.48
2022-08-25T09:23:36.511Z,25.54
2022-08-25T09:26:36.073Z,25.40
2022-08-25T09:29:22.075Z,25.44
2022-08-25T09:31:52.407Z,25.54
2022-08-25T09:34:24.781Z,26.12
2022-08-25T09:36:53.961Z,26.06
2022-08-25T09:39:23.698Z,25.63
2022-08-25T09:42:00.406Z,25.48
2022-08-25T09:44:43.435Z,25.00
2022-08-25T09:47:23.709Z,24.90
2022-08-25T09:50:01.094Z,25.11
2022-08-25T09:52:37.308Z,24.78
2022-08-25T09:55:14.763Z,24.55
2022-08-25T09:57:52.915Z,24.75
2022-08-25T10:00:33.568Z,24.20
2022-08-25T10:03:12.597Z,23.79
2022-08-25T10:06:13.231Z,24.02
2022-08-25T10:08:51.690Z,23.71
2022-08-25T10:11:41.520Z,24.22
2022-08-25T10:14:31.449Z,23.87
2022-08-25T10:17:27.621Z,23.58
2022-08-25T10:20:15.474Z,23.57
2022-08-25T10:22:45.045Z,23.88
2022-08-25T10:25:20.871Z,22.99
2022-08-25T10:28:05.559Z,22.69
2022-08-25T10:31:16.102Z,22.14
2022-08-25T10:34:31.980Z,21.78
2022-08-25T10:37:23.253Z,22.04
2022-08-25T10:40:37.097Z,22.46
2022-08-25T10:43:30.361Z,22.45
2022-08-25T10:46:32.641Z,21.10
2022-08-25T10:49:23.370Z,21.00
2022-08-25T10:52:10.128Z,21.36
2022-08-25T10:55:13.935Z,22.03
2022-08-25T10:58:00.601Z,22.01
2022-08-25T11:00:37.044Z,22.14
2022-08-25T11:03:21.081Z,22.38
2022-08-25T11:06:01.431Z,22.45
2022-08-25T11:08:42.785Z,22.50
2022-08-25T11:11:37.636Z,22.61
2022-08-25T11:14:13.551Z,22.07
2022-08-25T11:16:48.397Z,22.02
2022-08-25T11:19:37.881Z,22.29
2022-08-25T11:22:25.915Z,22.43
2022-08-25T11:25:18.565Z,22.68
2022-08-25T11:28:32.916Z,23.00
2022-08-25T11:31:03.845Z,23.43
2022-08-25T11:33:34.498Z,23.19
2022-08-25T11:36:29.455Z,22.70
2022-08-25T11:39:09.912Z,22.90
2022-08-25T11:42:10.007Z,22.95
2022-08-25T11:44:54.932Z,22.92
2022-08-25T11:48:17.158Z,22.48
2022-08-25T11:51:01.984Z,22.86
2022-08-25T11:53:42.100Z,22.12
2022-08-25T11:56:15.007Z,22.42
2022-08-25T11:58:49.850Z,22.58
2022-08-25T12:01:44.447Z,22.60
2022-08-25T12:04:42.263Z,22.91
2022-08-25T12:07:19.989Z,23.02
2022-08-25T12:09:57.006Z,23.21
2022-08-25T12:12:40.284Z,23.24
2022-08-25T12:15:22.995Z,23.14
2022-08-25T12:18:25.003Z,23.16
2022-08-25T12:21:01.099Z,22.99
2022-08-25T12:23:45.182Z,23.48
2022-08-25T12:26:46.681Z,23.70
2022-08-25T12:29:48.320Z,23.70
2022-08-25T12:32:48.443Z,23.55
2022-08-25T12:35:40.617Z,23.41
2022-08-25T12:38:17.675Z,23.50
2022-08-25T12:40:52.588Z,23.67
2022-08-25T12:43:27.396Z,23.67
2022-08-25T12:46:25.762Z,23.78
2022-08-25T12:49:32.042Z,23.90
2022-08-25T12:52:16.775Z,23.92
2022-08-25T12:54:58.615Z,24.22
2022-08-25T12:57:44.970Z,24.76
2022-08-25T13:03:35.505Z,24.27
2022-08-25T13:06:19.409Z,24.41
2022-08-25T13:09:15.201Z,24.22
2022-08-25T13:12:08.392Z,24.28
2022-08-25T13:14:43.977Z,24.20
2022-08-25T13:17:25.299Z,24.14
2022-08-25T13:20:17.323Z,24.34
2022-08-25T13:22:48.748Z,24.22
2022-08-25T13:25:24.303Z,24.52
2022-08-25T13:27:57.430Z,24.56
2022-08-25T13:30:36.229Z,24.60
2022-08-25T13:33:22.345Z,24.55
2022-08-25T13:36:13.715Z,24.48
2022-08-25T13:38:46.769Z,24.64
2022-08-25T13:41:29.590Z,24.08
2022-08-25T13:44:01.039Z,23.99
2022-08-25T13:46:29.407Z,23.95
2022-08-25T13:49:06.125Z,24.13
2022-08-25T13:51:39.075Z,24.01
2022-08-25T13:54:16.700Z,23.76
2022-08-25T13:56:46.743Z,23.84
2022-08-25T13:59:26.531Z,23.79
2022-08-25T14:01:56.615Z,23.96
2022-08-25T14:04:33.206Z,23.89
2022-08-25T14:07:22.912Z,23.98
2022-08-25T14:10:05.242Z,24.01
2022-08-25T14:12:46.697Z,24.45
2022-08-25T14:15:24.092Z,24.28
2022-08-25T14:18:27.150Z,23.33
2022-08-25T14:20:57.191Z,23.58
2022-08-25T14:23:29.881Z,23.91
2022-08-25T14:26:00.133Z,23.91
2022-08-25T14:28:30.666Z,23.88
2022-08-25T14:31:21.215Z,24.04
2022-08-25T14:33:57.908Z,24.11
2022-08-25T14:36:29.348Z,24.26
2022-08-25T14:38:59.244Z,24.62
2022-08-25T14:41:30.463Z,24.73
2022-08-25T14:44:01.611Z,24.69
2022-08-25T14:46:36.064Z,24.91
2022-08-25T14:49:08.349Z,24.91
2022-08-25T14:51:39.254Z,24.82
2022-08-25T14:54:11.233Z,25.07
2022-08-25T14:56:43.245Z,24.71
2022-08-25T14:59:14.154Z,24.92
2022-08-25T15:01:43.538Z,25.02
2022-08-25T15:04:22.156Z,25.04
2022-08-25T15:06:58.038Z,24.97
2022-08-25T15:09:33.296Z,25.00
2022-08-25T15:11:59.795Z,24.97
2022-08-25T15:14:33.451Z,25.10
2022-08-25T15:17:00.810Z,25.13
2022-08-25T15:19:31.187Z,25.40
2022-08-25T15:22:01.088Z,25.10
2022-08-25T15:24:31.513Z,25.35
2022-08-25T15:27:03.718Z,25.58
2022-08-25T15:29:37.767Z,25.29
2022-08-25T15:32:07.653Z,25.66
2022-08-25T15:34:38.252Z,25.57
2022-08-25T15:37:11.899Z,25.80
2022-08-25T15:39:41.692Z,25.92
2022-08-25T15:42:13.647Z,26.18
2022-08-25T15:44:53.288Z,26.02
2022-08-25T15:47:15.047Z,25.59
2022-08-25T15:49:46.928Z,25.55
2022-08-25T15:52:15.885Z,25.60
2022-08-25T15:54:45.974Z,25.81
2022-08-25T15:57:17.005Z,25.83
2022-08-25T15:59:48.519Z,26.14
2022-08-25T16:02:18.394Z,26.02
2022-08-25T16:04:51.383Z,26.13
2022-08-25T16:07:20.703Z,26.06
2022-08-25T16:09:54.316Z,26.07
2022-08-25T16:12:24.519Z,25.85
2022-08-25T16:14:53.939Z,26.12
2022-08-25T16:17:25.244Z,25.97
2022-08-25T16:19:54.504Z,26.10
2022-08-25T16:22:24.707Z,26.32
2022-08-25T16:24:55.384Z,26.41
2022-08-25T16:27:26.252Z,26.64
2022-08-25T16:29:56.061Z,26.84
2022-08-25T16:32:26.602Z,26.75
2022-08-25T16:34:57.608Z,26.75
2022-08-25T16:37:28.197Z,26.99
2022-08-25T16:39:59.008Z,27.15
2022-08-25T16:42:29.628Z,27.33
2022-08-25T16:44:59.974Z,27.55
2022-08-25T16:47:29.299Z,27.78
2022-08-25T16:49:59.029Z,28.31
2022-08-25T16:52:46.595Z,28.35
2022-08-25T16:55:17.367Z,28.71
2022-08-25T16:57:54.000Z,29.08
2022-08-25T17:00:28.299Z,29.01
2022-08-25T17:03:04.202Z,29.45
2022-08-25T17:05:35.960Z,29.53
2022-08-25T17:08:23.905Z,29.85
2022-08-25T17:11:12.361Z,30.04
2022-08-25T17:13:49.775Z,30.36
2022-08-25T17:16:21.421Z,30.53
2022-08-25T17:18:50.603Z,30.98
2022-08-25T17:21:24.829Z,31.27
2022-08-25T17:23:57.193Z,31.46
2022-08-25T17:26:28.106Z,31.42
2022-08-25T17:28:59.628Z,31.89
2022-08-25T17:31:29.929Z,32.18
2022-08-25T17:34:00.083Z,31.99
2022-08-25T17:36:30.846Z,32.13
2022-08-25T17:39:00.594Z,32.54
2022-08-25T17:41:31.361Z,32.59
2022-08-25T17:44:00.965Z,32.67
2022-08-25T17:46:30.269Z,33.00
2022-08-25T17:49:01.345Z,33.03
2022-08-25T17:51:31.743Z,33.02
2022-08-25T17:54:03.020Z,33.17
2022-08-25T17:56:33.960Z,33.32
2022-08-25T17:59:04.203Z,33.38
2022-08-25T18:01:35.139Z,33.67
2022-08-25T18:04:07.389Z,33.97
2022-08-25T18:06:39.117Z,34.02
2022-08-25T18:09:09.807Z,34.07
2022-08-25T18:11:39.428Z,34.39
2022-08-25T18:14:10.974Z,34.62
2022-08-25T18:16:42.421Z,34.75
2022-08-25T18:19:14.271Z,34.93
2022-08-25T18:21:43.959Z,35.26
2022-08-25T18:24:13.713Z,35.44
2022-08-25T18:26:43.543Z,35.63
2022-08-25T18:29:14.599Z,35.56
2022-08-25T18:31:48.635Z,35.58
2022-08-25T18:34:18.351Z,35.75
2022-08-25T18:36:48.988Z,36.04
2022-08-25T18:39:39.503Z,36.13
2022-08-25T18:42:08.981Z,36.33
2022-08-25T18:44:41.939Z,36.28
2022-08-25T18:47:12.714Z,36.50
2022-08-25T18:49:42.063Z,36.69
2022-08-25T18:52:12.337Z,36.95
2022-08-25T18:54:41.761Z,36.92
2022-08-25T18:57:12.604Z,37.34
2022-08-25T18:59:42.349Z,37.40
2022-08-25T19:02:12.721Z,37.64
2022-08-25T19:04:41.917Z,37.77
2022-08-25T19:07:11.945Z,37.89
2022-08-25T19:09:41.578Z,37.97
2022-08-25T19:12:11.685Z,37.82
2022-08-25T19:14:43.775Z,38.04
2022-08-25T19:17:13.688Z,38.03
2022-08-25T19:19:44.073Z,38.13
2022-08-25T19:22:31.665Z,38.10
2022-08-25T19:24:45.628Z,38.28
2022-08-25T19:27:16.110Z,38.22
2022-08-25T19:29:45.153Z,38.42
2022-08-25T19:32:14.347Z,38.28
2022-08-25T19:34:46.573Z,38.21
2022-08-25T19:37:18.725Z,38.45
2022-08-25T19:39:53.244Z,38.12
2022-08-25T19:42:34.851Z,38.50
2022-08-25T19:44:53.838Z,38.45
2022-08-25T19:47:24.116Z,38.73
2022-08-25T19:49:55.024Z,38.67
2022-08-25T19:52:24.754Z,38.75
2022-08-25T19:54:57.505Z,38.94
2022-08-25T19:57:43.019Z,39.18
2022-08-25T20:00:00.250Z,39.35
2022-08-25T20:02:29.494Z,39.36
2022-08-25T20:04:59.939Z,39.56
2022-08-25T20:07:32.233Z,39.67
2022-08-25T20:10:01.899Z,39.65
2022-08-25T20:12:32.423Z,40.03
2022-08-25T20:15:03.768Z,40.31
2022-08-25T20:17:35.525Z,40.62
2022-08-25T20:20:06.880Z,40.65
2022-08-25T20:22:36.368Z,40.73
2022-08-25T20:25:17.608Z,41.14
2022-08-25T20:27:50.095Z,41.38
2022-08-25T20:30:26.633Z,41.33
2022-08-25T20:32:56.656Z,41.35
2022-08-25T20:35:27.021Z,41.53
2022-08-25T20:37:57.976Z,41.72
2022-08-25T20:40:29.007Z,41.84
2022-08-25T20:43:01.808Z,41.65
2022-08-25T20:45:33.988Z,41.72
2022-08-25T20:48:03.744Z,41.77
2022-08-25T20:50:37.122Z,41.90
2022-08-25T20:53:13.510Z,41.93
2022-08-25T20:55:43.825Z,41.94
2022-08-25T20:58:14.632Z,41.82
2022-08-25T21:00:44.639Z,41.78
2022-08-25T21:03:15.711Z,41.89
2022-08-25T21:05:46.498Z,41.87
2022-08-25T21:08:16.518Z,41.94
2022-08-25T21:10:47.846Z,41.86
2022-08-25T21:13:18.381Z,41.64
2022-08-25T21:15:48.650Z,41.77
2022-08-25T21:18:18.694Z,41.82
2022-08-25T21:20:48.621Z,41.98
2022-08-25T21:23:18.941Z,42.08
2022-08-25T21:25:48.057Z,42.03
2022-08-25T21:28:18.260Z,42.33
2022-08-25T21:30:53.138Z,42.16
2022-08-25T21:33:26.398Z,42.44
2022-08-25T21:35:57.209Z,42.55
2022-08-25T21:38:28.875Z,42.78
2022-08-25T21:40:59.824Z,42.76
2022-08-25T21:43:30.545Z,42.99
2022-08-25T21:46:02.398Z,43.03
2022-08-25T21:48:31.923Z,43.47
2022-08-25T21:51:13.986Z,43.45
2022-08-25T21:53:43.605Z,43.61
2022-08-25T21:56:17.174Z,43.60
2022-08-25T21:58:49.075Z,43.84
2022-08-25T22:01:19.675Z,43.88
2022-08-25T22:03:48.863Z,44.08
2022-08-25T22:06:22.494Z,44.41
2022-08-25T22:08:52.688Z,44.41
2022-08-25T22:11:24.714Z,44.42
2022-08-25T22:13:56.282Z,44.51
2022-08-25T22:16:27.929Z,44.67
2022-08-25T22:18:59.372Z,44.87
2022-08-25T22:21:29.245Z,45.05
2022-08-25T22:23:59.998Z,45.23
2022-08-25T22:26:30.692Z,45.49
2022-08-25T22:29:01.361Z,45.66
2022-08-25T22:31:32.206Z,45.85
2022-08-25T22:34:01.579Z,46.00
2022-08-25T22:36:36.861Z,46.13
2022-08-25T22:39:07.552Z,46.27
2022-08-25T22:41:37.651Z,46.54
2022-08-25T22:44:09.359Z,46.65
2022-08-25T22:46:38.957Z,46.79
2022-08-25T22:49:09.582Z,46.97
2022-08-25T22:51:39.353Z,47.06
2022-08-25T22:54:09.778Z,47.61
2022-08-25T22:56:39.992Z,47.62
2022-08-25T22:59:11.133Z,47.72
2022-08-25T23:01:40.953Z,47.92
2022-08-25T23:04:15.517Z,48.01
2022-08-25T23:06:42.705Z,48.20
2022-08-25T23:09:13.131Z,48.41
2022-08-25T23:11:45.356Z,48.77
2022-08-25T23:14:15.845Z,48.79
2022-08-25T23:16:45.768Z,48.74
2022-08-25T23:19:16.684Z,48.85
2022-08-25T23:22:05.965Z,49.00
2022-08-25T23:24:46.470Z,49.12
2022-08-25T23:27:19.819Z,49.29
2022-08-25T23:29:51.596Z,49.62
2022-08-25T23:32:22.271Z,49.63
2022-08-25T23:34:52.999Z,49.68
2022-08-25T23:37:23.409Z,49.78
2022-08-25T23:39:54.225Z,49.80
2022-08-25T23:42:25.042Z,49.99
2022-08-25T23:44:55.792Z,50.00
2022-08-25T23:47:25.689Z,50.09
2022-08-25T23:49:56.895Z,50.17
2022-08-25T23:52:27.032Z,49.98
2022-08-25T23:54:57.627Z,49.90
2022-08-25T23:57:27.833Z,49.91
2022-08-25T23:59:59.408Z,49.85
